Home > Products > Valid Products > TAF

000
FTUS42 KFFC 310810 AAA
TAFMCN
TAF AMD
KMCN 310810Z 3108/0106 00000KT 1SM BR SKC
     FM311400 18003KT P6SM SCT035
     FM311700 24007KT P6SM BKN040
     FM312100 28010KT P6SM VCSH OVC040 PROB30 3121/0102 -TSRA
      BKN025CB
     FM010200 26005KT P6SM SCT050 BKN100=



000
FTUS42 KFFC 310523
TAFATL
TAF
KATL 310523Z 3106/0112 32005KT P6SM SKC
     FM311400 21005KT P6SM SCT040
     FM311700 25009KT P6SM VCSH BKN040 PROB30 3119/3123 -TSRA
      BKN025CB
     FM010200 26006KT P6SM SCT040 BKN150
     FM010900 29005KT P6SM SCT012=



000
FTUS42 KFFC 310523
TAFFTY
TAF
KFTY 310523Z 3106/0106 VRB03KT P6SM SKC
     FM311400 21004KT P6SM SCT035
     FM311600 22005KT P6SM BKN040
     FM311800 26010KT P6SM VCSH BKN040 PROB30 3119/3123 -TSRA
      BKN025CB
     FM010200 26006KT P6SM SCT050 BKN150=



000
FTUS42 KFFC 310523
TAFPDK
TAF
KPDK 310523Z 3106/0106 00000KT P6SM SKC
     FM311400 21004KT P6SM SCT040
     FM311600 23007KT P6SM BKN045
     FM311800 26011KT P6SM VCSH BKN045 PROB30 3119/3123 -TSRA
      BKN025CB
     FM010000 25007KT P6SM SCT045 BKN150=



000
FTUS42 KFFC 310523
TAFCSG
TAF
KCSG 310523Z 3106/0106 00000KT P6SM SKC
     FM311300 VRB03KT P6SM SCT045
     FM311400 21003KT P6SM VCSH BKN035 PROB30 3116/3122 -TSRA
      BKN025CB
     FM010100 28003KT P6SM BKN140=



000
FTUS42 KFFC 310523
TAFRYY
TAF
KRYY 310523Z 3106/0106 00000KT P6SM SKC
     FM311400 20004KT P6SM SCT035
     FM311500 22005KT P6SM BKN045
     FM311900 25009KT P6SM VCSH BKN045 PROB30 3119/3123 -TSRA
      BKN025CB
     FM010200 26007KT P6SM BKN120
      AMD NOT SKED TIL 311200=



000
FTUS42 KFFC 310523
TAFMCN
TAF
KMCN 310523Z 3106/0106 00000KT P6SM SKC
     FM311400 18003KT P6SM SCT035
     FM311700 24007KT P6SM BKN040
     FM312100 28010KT P6SM VCSH OVC040 PROB30 3121/0102 -TSRA
      BKN025CB
     FM010200 26005KT P6SM SCT050 BKN100=



000
FTUS42 KFFC 310523
TAFAHN
TAF
KAHN 310523Z 3106/0106 00000KT P6SM SKC
     FM311400 22003KT P6SM FEW040
     FM311700 24008KT P6SM SCT050
     FM311800 25010KT P6SM VCSH BKN050
     FM312200 25008KT P6SM SCT050
     FM010200 26007KT P6SM BKN250=



000
FTUS42 KFFC 310523
TAFCSG
TAF
KCSG 310523Z 3106/0106 00000KT P6SM SKC
     FM311300 VRB03KT P6SM SCT045
     FM311400 21003KT P6SM VCSH BKN035 PROB30 3116/3122 -TSRA
      BKN025CB
     FM010100 28003KT P6SM BKN140=



000
FTUS42 KFFC 310523
TAFRYY
TAF
KRYY 310523Z 3106/0106 00000KT P6SM SKC
     FM311400 20004KT P6SM SCT035
     FM311500 22005KT P6SM BKN045
     FM311900 25009KT P6SM VCSH BKN045 PROB30 3119/3123 -TSRA
      BKN025CB
     FM010200 26007KT P6SM BKN120
      AMD NOT SKED TIL 311200=



000
FTUS42 KFFC 310523
TAFMCN
TAF
KMCN 310523Z 3106/0106 00000KT P6SM SKC
     FM311400 18003KT P6SM SCT035
     FM311700 24007KT P6SM BKN040
     FM312100 28010KT P6SM VCSH OVC040 PROB30 3121/0102 -TSRA
      BKN025CB
     FM010200 26005KT P6SM SCT050 BKN100=



000
FTUS42 KFFC 310523
TAFATL
TAF
KATL 310523Z 3106/0112 32005KT P6SM SKC
     FM311400 21005KT P6SM SCT040
     FM311700 25009KT P6SM VCSH BKN040 PROB30 3119/3123 -TSRA
      BKN025CB
     FM010200 26006KT P6SM SCT040 BKN150
     FM010900 29005KT P6SM SCT012=



000
FTUS42 KFFC 310523
TAFAHN
TAF
KAHN 310523Z 3106/0106 00000KT P6SM SKC
     FM311400 22003KT P6SM FEW040
     FM311700 24008KT P6SM SCT050
     FM311800 25010KT P6SM VCSH BKN050
     FM312200 25008KT P6SM SCT050
     FM010200 26007KT P6SM BKN250=



000
FTUS42 KFFC 310523
TAFPDK
TAF
KPDK 310523Z 3106/0106 00000KT P6SM SKC
     FM311400 21004KT P6SM SCT040
     FM311600 23007KT P6SM BKN045
     FM311800 26011KT P6SM VCSH BKN045 PROB30 3119/3123 -TSRA
      BKN025CB
     FM010000 25007KT P6SM SCT045 BKN150=



000
FTUS42 KFFC 310523
TAFFTY
TAF
KFTY 310523Z 3106/0106 VRB03KT P6SM SKC
     FM311400 21004KT P6SM SCT035
     FM311600 22005KT P6SM BKN040
     FM311800 26010KT P6SM VCSH BKN040 PROB30 3119/3123 -TSRA
      BKN025CB
     FM010200 26006KT P6SM SCT050 BKN150=



000
FTUS42 KFFC 310330 AAB
TAFATL
TAF AMD
KATL 310330Z 3104/0106 30005KT P6SM SKC
     FM311400 23005KT P6SM SCT035
     FM311800 26010KT P6SM BKN040 PROB30 3118/3124 -TSRA BKN040CB
     FM010000 27006KT P6SM SCT050 BKN100 PROB30 0100/0103 -TSRA
      BKN050CB=



000
FTUS42 KFFC 310130 AAA
TAFATL
TAF AMD
KATL 310130Z 3102/0106 30005KT P6SM SKC
     FM311400 23005KT P6SM SCT035
     FM311800 26010KT P6SM BKN040 PROB30 3118/3124 -TSRA BKN040CB
     FM010000 27006KT P6SM SCT050 BKN100 PROB30 0100/0103 -TSRA
      BKN050CB=



000
FTUS42 KFFC 302320
TAFCSG
TAF
KCSG 302320Z 3100/3124 VRB03KT P6SM SKC
     FM311200 VRB03KT P6SM BKN030
     FM311800 28008KT P6SM SCT040 BKN120 PROB30 3118/3124 -TSRA
      BKN040CB=



000
FTUS42 KFFC 302320
TAFAHN
TAF
KAHN 302320Z 3100/3124 29006KT P6SM FEW050
     FM310200 VRB03KT P6SM SKC
     FM311400 23005KT P6SM SCT035
     FM311800 25008KT P6SM BKN040 PROB30 3122/3124 -TSRA BKN040CB=



000
FTUS42 KFFC 302320
TAFCSG
TAF
KCSG 302320Z 3100/3124 VRB03KT P6SM SKC
     FM311200 VRB03KT P6SM BKN030
     FM311800 28008KT P6SM SCT040 BKN120 PROB30 3118/3124 -TSRA
      BKN040CB=



000
FTUS42 KFFC 302320
TAFATL
TAF
KATL 302320Z 3100/0106 30005KT P6SM SKC
     FM311400 23005KT P6SM SCT035
     FM311800 26010KT P6SM BKN040 PROB30 3118/3124 -TSRA BKN040CB
     FM010000 27006KT P6SM SCT050 BKN100 PROB30 0100/0103 -TSRA
      BKN050CB=



000
FTUS42 KFFC 302320
TAFMCN
TAF
KMCN 302320Z 3100/3124 VRB03KT P6SM SKC
     FM311400 22005KT P6SM SCT035
     FM311800 27010KT P6SM SCT040 BKN120 PROB30 3121/3124 -TSRA
      BKN040CB=



000
FTUS42 KFFC 302320
TAFATL
TAF
KATL 302320Z 3100/0106 30005KT P6SM SKC
     FM311400 23005KT P6SM SCT035
     FM311800 26010KT P6SM BKN040 PROB30 3118/3124 -TSRA BKN040CB
     FM010000 27006KT P6SM SCT050 BKN100 PROB30 0100/0103 -TSRA
      BKN050CB=



000
FTUS42 KFFC 302320
TAFAHN
TAF
KAHN 302320Z 3100/3124 29006KT P6SM FEW050
     FM310200 VRB03KT P6SM SKC
     FM311400 23005KT P6SM SCT035
     FM311800 25008KT P6SM BKN040 PROB30 3122/3124 -TSRA BKN040CB=



000
FTUS42 KFFC 302320
TAFMCN
TAF
KMCN 302320Z 3100/3124 VRB03KT P6SM SKC
     FM311400 22005KT P6SM SCT035
     FM311800 27010KT P6SM SCT040 BKN120 PROB30 3121/3124 -TSRA
      BKN040CB=



000
FTUS42 KFFC 302320
TAFRYY
TAF
KRYY 302320Z 3100/3124 29006KT P6SM FEW050
     FM310100 00000KT P6SM SKC
     FM311400 24005KT P6SM SCT035
     FM311800 27008KT P6SM BKN040 PROB30 3118/3124 -TSRA BKN040CB
      AMD NOT SKED 3104/3112=



000
FTUS42 KFFC 302320
TAFPDK
TAF
KPDK 302320Z 3100/3124 30006KT P6SM FEW250
     FM310100 00000KT P6SM SKC
     FM311400 23005KT P6SM SCT035
     FM311800 26008KT P6SM BKN040 PROB30 3118/3124 -TSRA BKN040CB=



000
FTUS42 KFFC 302320
TAFFTY
TAF
KFTY 302320Z 3100/3124 30006KT P6SM FEW250
     FM310100 00000KT P6SM SKC
     FM311400 22005KT P6SM SCT035
     FM311800 26007KT P6SM BKN040 PROB30 3118/3124 -TSRA BKN040CB=



000
FTUS42 KFFC 302320
TAFRYY
TAF
KRYY 302320Z 3100/3124 29006KT P6SM FEW050
     FM310100 00000KT P6SM SKC
     FM311400 24005KT P6SM SCT035
     FM311800 27008KT P6SM BKN040 PROB30 3118/3124 -TSRA BKN040CB
      AMD NOT SKED 3104/3112=



000
FTUS42 KFFC 302320
TAFFTY
TAF
KFTY 302320Z 3100/3124 30006KT P6SM FEW250
     FM310100 00000KT P6SM SKC
     FM311400 22005KT P6SM SCT035
     FM311800 26007KT P6SM BKN040 PROB30 3118/3124 -TSRA BKN040CB=



000
FTUS42 KFFC 302320
TAFPDK
TAF
KPDK 302320Z 3100/3124 30006KT P6SM FEW250
     FM310100 00000KT P6SM SKC
     FM311400 23005KT P6SM SCT035
     FM311800 26008KT P6SM BKN040 PROB30 3118/3124 -TSRA BKN040CB=



000
FTUS42 KFFC 302130 AAC
TAFATL
TAF AMD
KATL 302130Z 3022/3124 32010KT P6SM FEW050
     FM310100 32005KT P6SM SKC
     FM311400 23005KT P6SM SCT035
     FM311800 26010KT P6SM BKN040 PROB30 3118/3124 -TSRA BKN040CB=



000
FTUS42 KFFC 301945 AAB
TAFATL
TAF AMD
KATL 301945Z 3020/3124 31010G16KT P6SM SCT040
     FM302200 31008KT P6SM SKC
     FM310200 32005KT P6SM SKC
     FM311400 23005KT P6SM SCT035
     FM311800 26010KT P6SM BKN040=



000
FTUS42 KFFC 301901 AAA
TAFCSG
TAF AMD
KCSG 301901Z 3019/3118 28009KT P6SM SCT025 BKN035
     FM302000 30012KT P6SM BKN040
     FM310000 30008KT P6SM SCT050
     FM310500 VRB03KT P6SM SCT020
      TEMPO 3108/3112 4SM BR
     FM311400 20005KT P6SM BKN035=



000
FTUS42 KFFC 301858 AAA
TAFRYY
TAF AMD
KRYY 301858Z 3019/3118 30010G16KT P6SM SCT040
     FM302200 31008KT P6SM SKC
     FM310200 32005KT P6SM SKC
     FM311400 20005KT P6SM SCT035=



000
FTUS42 KFFC 301858 AAA
TAFRYY
TAF AMD
KRYY 301858Z 3019/3118 30010G16KT P6SM SCT040
     FM302200 31008KT P6SM SKC
     FM310200 32005KT P6SM SKC
     FM311400 20005KT P6SM SCT035=



000
FTUS42 KFFC 301857 AAA
TAFATL
TAF AMD
KATL 301857Z 3019/3124 31010G16KT P6SM SCT040
     FM302200 31008KT P6SM SKC
     FM310200 32005KT P6SM SKC
     FM311400 23005KT P6SM SCT035
     FM311800 26010KT P6SM BKN040=



000
FTUS42 KFFC 301857 AAA
TAFATL
TAF AMD
KATL 301857Z 3019/3124 31010G16KT P6SM SCT040
     FM302200 31008KT P6SM SKC
     FM310200 32005KT P6SM SKC
     FM311400 23005KT P6SM SCT035
     FM311800 26010KT P6SM BKN040=



000
FTUS42 KFFC 301739
TAFATL
TAF
KATL 301739Z 3018/3124 31010G16KT P6SM FEW008 BKN015
     FM302000 32010G15KT P6SM BKN035
     FM302300 31008KT P6SM SKC
     FM310200 32005KT P6SM SKC
     FM311400 23005KT P6SM SCT035
     FM311800 26010KT P6SM BKN040=



000
FTUS42 KFFC 301739
TAFFTY
TAF
KFTY 301739Z 3018/3118 32008G15KT P6SM SCT020 BKN035
     FM302000 32010G15KT P6SM SCT035
     FM302300 31008KT P6SM SKC
     FM310200 32005KT P6SM SKC
     FM311400 20005KT P6SM SCT035=



000
FTUS42 KFFC 301739
TAFRYY
TAF
KRYY 301739Z 3018/3118 30010G16KT P6SM BKN015 BKN035
     FM302000 32010G15KT P6SM SCT035
     FM302300 31008KT P6SM SKC
     FM310200 32005KT P6SM SKC
     FM311400 20005KT P6SM SCT035=



000
FTUS42 KFFC 301739
TAFMCN
TAF
KMCN 301739Z 3018/3118 25010KT P6SM SCT015 BKN025
     FM302000 30012KT P6SM FEW020 BKN035
     FM310000 30008KT P6SM SCT050
     FM310500 VRB03KT P6SM SKC
      TEMPO 3108/3112 4SM BR
     FM311400 20005KT P6SM SCT035=



000
FTUS42 KFFC 301739
TAFCSG
TAF
KCSG 301739Z 3018/3118 28009KT P6SM SCT008 BKN015
     FM302000 30012KT P6SM FEW020 BKN035
     FM310000 30008KT P6SM SCT050
     FM310500 VRB03KT P6SM SCT020
      TEMPO 3108/3112 4SM BR
     FM311400 20005KT P6SM BKN035=



000
FTUS42 KFFC 301739
TAFPDK
TAF
KPDK 301739Z 3018/3118 30010G18KT P6SM SCT015 BKN035
     FM302000 32010G15KT P6SM SCT035
     FM302300 31008KT P6SM SKC
     FM310200 32005KT P6SM SKC
     FM311400 20005KT P6SM SCT035=



000
FTUS42 KFFC 301739
TAFMCN
TAF
KMCN 301739Z 3018/3118 25010KT P6SM SCT015 BKN025
     FM302000 30012KT P6SM FEW020 BKN035
     FM310000 30008KT P6SM SCT050
     FM310500 VRB03KT P6SM SKC
      TEMPO 3108/3112 4SM BR
     FM311400 20005KT P6SM SCT035=



000
FTUS42 KFFC 301739
TAFRYY
TAF
KRYY 301739Z 3018/3118 30010G16KT P6SM BKN015 BKN035
     FM302000 32010G15KT P6SM SCT035
     FM302300 31008KT P6SM SKC
     FM310200 32005KT P6SM SKC
     FM311400 20005KT P6SM SCT035=



000
FTUS42 KFFC 301739
TAFATL
TAF
KATL 301739Z 3018/3124 31010G16KT P6SM FEW008 BKN015
     FM302000 32010G15KT P6SM BKN035
     FM302300 31008KT P6SM SKC
     FM310200 32005KT P6SM SKC
     FM311400 23005KT P6SM SCT035
     FM311800 26010KT P6SM BKN040=



000
FTUS42 KFFC 301739
TAFPDK
TAF
KPDK 301739Z 3018/3118 30010G18KT P6SM SCT015 BKN035
     FM302000 32010G15KT P6SM SCT035
     FM302300 31008KT P6SM SKC
     FM310200 32005KT P6SM SKC
     FM311400 20005KT P6SM SCT035=



000
FTUS42 KFFC 301739
TAFAHN
TAF
KAHN 301739Z 3018/3118 29010G16KT P6SM BKN025 BKN040
     FM302000 29008G16KT P6SM SCT025 SCT035
     FM302200 29010KT P6SM SKC
     FM310300 VRB03KT P6SM SKC
     FM311400 25005KT P6SM SCT035=



000
FTUS42 KFFC 301739
TAFCSG
TAF
KCSG 301739Z 3018/3118 28009KT P6SM SCT008 BKN015
     FM302000 30012KT P6SM FEW020 BKN035
     FM310000 30008KT P6SM SCT050
     FM310500 VRB03KT P6SM SCT020
      TEMPO 3108/3112 4SM BR
     FM311400 20005KT P6SM BKN035=



000
FTUS42 KFFC 301739
TAFFTY
TAF
KFTY 301739Z 3018/3118 32008G15KT P6SM SCT020 BKN035
     FM302000 32010G15KT P6SM SCT035
     FM302300 31008KT P6SM SKC
     FM310200 32005KT P6SM SKC
     FM311400 20005KT P6SM SCT035=



000
FTUS42 KFFC 301739
TAFAHN
TAF
KAHN 301739Z 3018/3118 29010G16KT P6SM BKN025 BKN040
     FM302000 29008G16KT P6SM SCT025 SCT035
     FM302200 29010KT P6SM SKC
     FM310300 VRB03KT P6SM SKC
     FM311400 25005KT P6SM SCT035=



000
FTUS42 KFFC 301605 AAA
TAFPDK
TAF AMD
KPDK 301605Z 3016/3112 32010G18KT P6SM VCSH SCT008 OVC015
      TEMPO 3016/3018 BKN008
     FM301800 30010G18KT P6SM SCT015 BKN035
     FM301900 31011G16KT P6SM FEW035
     FM302200 30010KT P6SM SKC
     FM310200 VRB03KT P6SM SKC=



000
FTUS42 KFFC 301601 AAB
TAFFTY
TAF AMD
KFTY 301601Z 3016/3112 31010G15KT P6SM BKN012 BKN050
     FM301800 32010G15KT P6SM BKN035
     FM302200 31009KT P6SM SKC
     FM310200 VRB03KT P6SM SKC=



000
FTUS42 KFFC 301601 AAB
TAFFTY
TAF AMD
KFTY 301601Z 3016/3112 31010G15KT P6SM BKN012 BKN050
     FM301800 32010G15KT P6SM BKN035
     FM302200 31009KT P6SM SKC
     FM310200 VRB03KT P6SM SKC=



000
FTUS42 KFFC 301559 AAB
TAFATL
TAF AMD
KATL 301559Z 3016/3118 28010KT P6SM VCSH SCT008 BKN015
      TEMPO 3016/3018 BKN008
     FM301800 31010G15KT P6SM BKN025
     FM301900 32010G15KT P6SM SCT035
     FM302200 31006KT P6SM SKC
     FM311400 20005KT P6SM FEW035=



000
FTUS42 KFFC 301511 AAB
TAFRYY
TAF AMD
KRYY 301511Z 3015/3112 30008KT P6SM SCT008 BKN012
      TEMPO 3015/3017 2SM -DZ BR BKN008
     FM301700 30008KT P6SM SCT015 BKN035
     FM301900 31010KT P6SM SCT035
     FM310000 31005KT P6SM SKC
     FM310200 VRB03KT P6SM SKC=



000
FTUS42 KFFC 301511 AAB
TAFRYY
TAF AMD
KRYY 301511Z 3015/3112 30008KT P6SM SCT008 BKN012
      TEMPO 3015/3017 2SM -DZ BR BKN008
     FM301700 30008KT P6SM SCT015 BKN035
     FM301900 31010KT P6SM SCT035
     FM310000 31005KT P6SM SKC
     FM310200 VRB03KT P6SM SKC=



000
FTUS42 KFFC 301411 AAA
TAFAHN
TAF AMD
KAHN 301411Z 3014/3112 21008KT P6SM BKN009 BKN025
     FM301600 29009KT P6SM SCT012 BKN040
     FM301800 30010KT P6SM SCT040
     FM302200 29008KT P6SM SKC
     FM310200 30004KT P6SM SKC=



000
FTUS42 KFFC 301411 AAA
TAFAHN
TAF AMD
KAHN 301411Z 3014/3112 21008KT P6SM BKN009 BKN025
     FM301600 29009KT P6SM SCT012 BKN040
     FM301800 30010KT P6SM SCT040
     FM302200 29008KT P6SM SKC
     FM310200 30004KT P6SM SKC=



000
FTUS42 KFFC 301407 AAA
TAFFTY
TAF AMD
KFTY 301407Z 3014/3112 25007KT P6SM SCT008 BKN040
      TEMPO 3014/3016 BKN008
     FM301600 31010G15KT P6SM BKN050
     FM301900 32010G15KT P6SM FEW050
     FM302200 31009KT P6SM SKC
     FM310200 VRB03KT P6SM SKC=



000
FTUS42 KFFC 301407 AAA
TAFFTY
TAF AMD
KFTY 301407Z 3014/3112 25007KT P6SM SCT008 BKN040
      TEMPO 3014/3016 BKN008
     FM301600 31010G15KT P6SM BKN050
     FM301900 32010G15KT P6SM FEW050
     FM302200 31009KT P6SM SKC
     FM310200 VRB03KT P6SM SKC=



000
FTUS42 KFFC 301405 AAA
TAFCSG
TAF AMD
KCSG 301405Z 3014/3112 21007KT 5SM -RA BR SCT008 BKN025
      TEMPO 3014/3016 1SM RA BR OVC008
     FM301600 28009KT P6SM BKN012 OVC035
     FM301900 29009KT P6SM SCT035
     FM310000 30005KT P6SM SKC
     FM310400 34003KT P6SM SKC=



000
FTUS42 KFFC 301402 AAA
TAFMCN
TAF AMD
KMCN 301402Z 3014/3112 23007KT 4SM -RA BR SCT008 BKN025
      TEMPO 3014/3017 1SM RA BR BKN008
     FM301700 25008KT 5SM -RA BR BKN025
     FM302000 29010KT P6SM SCT035
     FM310000 30005KT P6SM SKC
     FM310500 34003KT P6SM SKC=



000
FTUS42 KFFC 301359 AAA
TAFATL
TAF AMD
KATL 301359Z 3014/3118 24008KT P6SM SCT015 BKN050
      TEMPO 3014/3016 BKN015
     FM301600 31010G15KT P6SM SCT035 BKN060
     FM301900 32010G15KT P6SM SCT035
     FM302200 31006KT P6SM SKC
     FM311400 20005KT P6SM FEW035=



000
FTUS42 KFFC 301158 AAA
TAFRYY
TAF AMD
KRYY 301158Z 3012/3112 24009KT 5SM -SHRA BKN012
      TEMPO 3012/3013 3SM TSRA BKN012CB
     FM301400 28008KT P6SM BKN012
     FM301600 30008KT P6SM OVC035
     FM301800 31010KT P6SM SCT035
     FM310000 31005KT P6SM SKC
     FM310200 VRB03KT P6SM SKC=



000
FTUS42 KFFC 301158 AAA
TAFRYY
TAF AMD
KRYY 301158Z 3012/3112 24009KT 5SM -SHRA BKN012
      TEMPO 3012/3013 3SM TSRA BKN012CB
     FM301400 28008KT P6SM BKN012
     FM301600 30008KT P6SM OVC035
     FM301800 31010KT P6SM SCT035
     FM310000 31005KT P6SM SKC
     FM310200 VRB03KT P6SM SKC=



000
FTUS42 KFFC 301120
TAFRYY
TAF
KRYY 301120Z 3012/3112 24009KT 5SM -SHRA BKN012
     FM301400 28008KT P6SM BKN012
     FM301600 30008KT P6SM OVC035
     FM301800 31010KT P6SM SCT035
     FM310000 31005KT P6SM SKC
     FM310200 VRB03KT P6SM SKC=



000
FTUS42 KFFC 301120
TAFCSG
TAF
KCSG 301120Z 3012/3112 21007KT P6SM SCT012 BKN040
     FM301400 23009KT 6SM -SHRA OVC012
     FM301800 28009KT P6SM BKN012 OVC035
     FM302000 29009KT P6SM SCT035
     FM310000 30005KT P6SM SKC
     FM310400 34003KT P6SM SKC=



000
FTUS42 KFFC 301120
TAFFTY
TAF
KFTY 301120Z 3012/3112 22010KT 5SM -SHRA SCT008 BKN012
      TEMPO 3012/3013 3SM TSRA BKN008CB
     FM301400 29007KT P6SM SCT008 BKN012
     FM301700 31010G15KT P6SM BKN040
     FM301900 32010G15KT P6SM FEW040
     FM302200 31009KT P6SM SKC
     FM310200 VRB03KT P6SM SKC=



000
FTUS42 KFFC 301120
TAFFTY
TAF
KFTY 301120Z 3012/3112 22010KT 5SM -SHRA SCT008 BKN012
      TEMPO 3012/3013 3SM TSRA BKN008CB
     FM301400 29007KT P6SM SCT008 BKN012
     FM301700 31010G15KT P6SM BKN040
     FM301900 32010G15KT P6SM FEW040
     FM302200 31009KT P6SM SKC
     FM310200 VRB03KT P6SM SKC=



000
FTUS42 KFFC 301120
TAFRYY
TAF
KRYY 301120Z 3012/3112 24009KT 5SM -SHRA BKN012
     FM301400 28008KT P6SM BKN012
     FM301600 30008KT P6SM OVC035
     FM301800 31010KT P6SM SCT035
     FM310000 31005KT P6SM SKC
     FM310200 VRB03KT P6SM SKC=



000
FTUS42 KFFC 301120
TAFAHN
TAF
KAHN 301120Z 3012/3112 21008KT 5SM -SHRA BKN012 BKN025
     FM301500 29009KT P6SM SCT012 BKN040
     FM301800 30010KT P6SM SCT040
     FM302200 29008KT P6SM SKC
     FM310200 30004KT P6SM SKC=



000
FTUS42 KFFC 301120
TAFMCN
TAF
KMCN 301120Z 3012/3112 21006KT P6SM BKN025
     FM301500 24011KT P6SM VCSH OVC025
      TEMPO 3015/3019 4SM SHRA BKN012
     FM302000 29010KT P6SM SCT035
     FM310000 30005KT P6SM SKC
     FM310500 34003KT P6SM SKC=



000
FTUS42 KFFC 301120
TAFATL
TAF
KATL 301120Z 3012/3118 22013KT 5SM -SHRA SCT008 OVC012
      TEMPO 3012/3013 3SM TSRA BKN008CB
     FM301400 28007KT P6SM BKN012
     FM301700 31010G15KT P6SM BKN035
     FM301900 32010G15KT P6SM SCT035
     FM302200 31006KT P6SM SKC
     FM311400 20005KT P6SM FEW035=



000
FTUS42 KFFC 301120
TAFAHN
TAF
KAHN 301120Z 3012/3112 21008KT 5SM -SHRA BKN012 BKN025
     FM301500 29009KT P6SM SCT012 BKN040
     FM301800 30010KT P6SM SCT040
     FM302200 29008KT P6SM SKC
     FM310200 30004KT P6SM SKC=



000
FTUS42 KFFC 301120
TAFCSG
TAF
KCSG 301120Z 3012/3112 21007KT P6SM SCT012 BKN040
     FM301400 23009KT 6SM -SHRA OVC012
     FM301800 28009KT P6SM BKN012 OVC035
     FM302000 29009KT P6SM SCT035
     FM310000 30005KT P6SM SKC
     FM310400 34003KT P6SM SKC=



000
FTUS42 KFFC 301120
TAFATL
TAF
KATL 301120Z 3012/3118 22013KT 5SM -SHRA SCT008 OVC012
      TEMPO 3012/3013 3SM TSRA BKN008CB
     FM301400 28007KT P6SM BKN012
     FM301700 31010G15KT P6SM BKN035
     FM301900 32010G15KT P6SM SCT035
     FM302200 31006KT P6SM SKC
     FM311400 20005KT P6SM FEW035=



000
FTUS42 KFFC 301120
TAFPDK
TAF
KPDK 301120Z 3012/3112 22010KT 5SM -SHRA SCT008 OVC015
      TEMPO 3012/3013 3SM TSRA BKN008CB
     FM301400 28008KT P6SM BKN012
     FM301700 30010G15KT P6SM BKN035
     FM301900 31011G16KT P6SM FEW035
     FM302200 30010KT P6SM SKC
     FM310200 VRB03KT P6SM SKC=



000
FTUS42 KFFC 301120
TAFMCN
TAF
KMCN 301120Z 3012/3112 21006KT P6SM BKN025
     FM301500 24011KT P6SM VCSH OVC025
      TEMPO 3015/3019 4SM SHRA BKN012
     FM302000 29010KT P6SM SCT035
     FM310000 30005KT P6SM SKC
     FM310500 34003KT P6SM SKC=



000
FTUS42 KFFC 301120
TAFPDK
TAF
KPDK 301120Z 3012/3112 22010KT 5SM -SHRA SCT008 OVC015
      TEMPO 3012/3013 3SM TSRA BKN008CB
     FM301400 28008KT P6SM BKN012
     FM301700 30010G15KT P6SM BKN035
     FM301900 31011G16KT P6SM FEW035
     FM302200 30010KT P6SM SKC
     FM310200 VRB03KT P6SM SKC=



000
FTUS42 KFFC 300943 AAB
TAFFTY
TAF AMD
KFTY 300943Z 3010/3106 21007KT P6SM OVC012
     FM301100 22011KT 5SM -SHRA SCT008 BKN012
      TEMPO 3011/3013 3SM TSRA BKN008CB
     FM301300 24010KT 6SM -SHRA OVC008
     FM301500 29007KT P6SM SCT008 BKN012
     FM301700 31010G15KT P6SM BKN040
     FM301900 32010G15KT P6SM FEW040
     FM302200 31009KT P6SM SKC=



000
FTUS42 KFFC 300943 AAC
TAFATL
TAF AMD
KATL 300943Z 3010/3112 22010KT P6SM BKN012 OVC025
     FM301100 22010KT 5SM -SHRA SCT008 OVC012
      TEMPO 3011/3013 3SM TSRA BKN008CB
     FM301300 24010KT 6SM -SHRA OVC008
     FM301500 28007KT P6SM BKN012
     FM301700 31010G15KT P6SM BKN035
     FM301900 32010G15KT P6SM SCT035
     FM302200 31009KT P6SM SKC=



000
FTUS42 KFFC 300943 AAC
TAFATL
TAF AMD
KATL 300943Z 3010/3112 22010KT P6SM BKN012 OVC025
     FM301100 22010KT 5SM -SHRA SCT008 OVC012
      TEMPO 3011/3013 3SM TSRA BKN008CB
     FM301300 24010KT 6SM -SHRA OVC008
     FM301500 28007KT P6SM BKN012
     FM301700 31010G15KT P6SM BKN035
     FM301900 32010G15KT P6SM SCT035
     FM302200 31009KT P6SM SKC=



000
FTUS42 KFFC 300943 AAB
TAFPDK
TAF AMD
KPDK 300943Z 3010/3106 20010KT P6SM SCT016 BKN020
     FM301030 22010KT 5SM -SHRA SCT008 OVC015
      TEMPO 3011/3013 3SM TSRA BKN008CB
     FM301300 24010KT P6SM VCSH OVC008
     FM301500 28008KT P6SM SCT008 BKN012
     FM301700 30010G15KT P6SM BKN035
     FM301900 31011G16KT P6SM FEW035
     FM302200 30010KT P6SM SKC=



000
FTUS42 KFFC 300933 AAA
TAFPDK
TAF AMD
KPDK 300933Z 3010/3106 20010KT P6SM SCT016 BKN020
     FM301030 22010KT 5SM -SHRA SCT008 OVC015
      TEMPO 3011/3013 3SM SHRA BKN008
     FM301300 24010KT P6SM VCSH OVC008
     FM301500 28008KT P6SM SCT008 BKN012
     FM301700 30010G15KT P6SM BKN035
     FM301900 31011G16KT P6SM FEW035
     FM302200 30010KT P6SM SKC=



000
FTUS42 KFFC 300932 AAA
TAFFTY
TAF AMD
KFTY 300932Z 3010/3106 21007KT P6SM OVC012
     FM301100 22011KT 5SM -SHRA SCT008 BKN012
      TEMPO 3011/3013 3SM SHRA BKN008
     FM301300 24010KT 6SM -SHRA OVC008
     FM301500 29007KT P6SM SCT008 BKN012
     FM301700 31010G15KT P6SM BKN040
     FM301900 32010G15KT P6SM FEW040
     FM302200 31009KT P6SM SKC=



000
FTUS42 KFFC 300931 AAB
TAFATL
TAF AMD
KATL 300931Z 3010/3112 22010KT P6SM BKN012 OVC025
     FM301100 22010KT 5SM -SHRA SCT008 OVC012
      TEMPO 3011/3013 3SM SHRA BKN008
     FM301300 24010KT 6SM -SHRA OVC008
     FM301500 28007KT P6SM BKN012
     FM301700 31010G15KT P6SM BKN035
     FM301900 32010G15KT P6SM SCT035
     FM302200 31009KT P6SM SKC=



000
FTUS42 KFFC 300732 AAA
TAFATL
TAF AMD
KATL 300732Z 3008/3112 19007KT P6SM FEW040 SCT150
     FM300900 20009KT P6SM SCT012 BKN040
     FM301100 22010KT 5SM -SHRA SCT008 OVC012
     FM301300 24010KT 6SM -SHRA OVC008
     FM301500 28007KT P6SM BKN012
     FM301700 31010G15KT P6SM BKN035
     FM301900 32010G15KT P6SM SCT035
     FM302200 31009KT P6SM SKC=



000
FTUS42 KFFC 300732 AAA
TAFATL
TAF AMD
KATL 300732Z 3008/3112 19007KT P6SM FEW040 SCT150
     FM300900 20009KT P6SM SCT012 BKN040
     FM301100 22010KT 5SM -SHRA SCT008 OVC012
     FM301300 24010KT 6SM -SHRA OVC008
     FM301500 28007KT P6SM BKN012
     FM301700 31010G15KT P6SM BKN035
     FM301900 32010G15KT P6SM SCT035
     FM302200 31009KT P6SM SKC=



000
FTUS42 KFFC 300532
TAFCSG
TAF
KCSG 300532Z 3006/3106 18006KT P6SM SKC
     FM301000 21007KT P6SM SCT012 BKN040
     FM301400 23009KT 6SM -SHRA SCT008 OVC012
     FM301800 28009KT P6SM SCT008 BKN012 OVC035
     FM302000 29009KT P6SM SCT035
     FM310000 30005KT P6SM SKC
     FM310400 34003KT P6SM SKC=



000
FTUS42 KFFC 300532
TAFMCN
TAF
KMCN 300532Z 3006/3106 18007KT P6SM SKC
     FM301000 21008KT P6SM SCT012 BKN040
     FM301400 23010KT P6SM SCT012 OVC025
     FM301500 24011KT P6SM VCSH OVC025
      TEMPO 3015/3019 4SM SHRA SCT008 BKN012
     FM302000 29010KT P6SM SCT035
     FM310000 30005KT P6SM SKC
     FM310500 34003KT P6SM SKC=



000
FTUS42 KFFC 300532
TAFAHN
TAF
KAHN 300532Z 3006/3106 19007KT P6SM SCT045 BKN150
     FM300900 20006KT P6SM BKN040
     FM301100 21008KT 5SM -SHRA SCT012 OVC040
     FM301400 27007KT 6SM -SHRA BKN009 OVC012
     FM301600 29009KT P6SM SCT012 BKN040
     FM301800 30010KT P6SM SCT040
     FM302200 29008KT P6SM SKC
     FM310200 30004KT P6SM SKC=



000
FTUS42 KFFC 300532
TAFATL
TAF
KATL 300532Z 3006/3112 19007KT P6SM FEW040 SCT150
     FM300900 20009KT P6SM SCT012 BKN040
     FM301100 22010KT 5SM -SHRA SCT008 OVC012
     FM301300 24010KT 6SM -SHRA OVC008
     FM301500 28007KT P6SM BKN012
     FM301700 31010G15KT P6SM BKN035
     FM301900 32010G15KT P6SM SCT035
     FM302200 31009KT P6SM SKC=



000
FTUS42 KFFC 300532
TAFPDK
TAF
KPDK 300532Z 3006/3106 19007KT P6SM SCT040 BKN150
     FM301000 20009KT P6SM SCT012 BKN040
     FM301100 22010KT 5SM -SHRA BKN008 OVC015
     FM301300 24010KT P6SM VCSH OVC008
     FM301500 28008KT P6SM SCT008 BKN012
     FM301700 30010G15KT P6SM BKN035
     FM301900 31011G16KT P6SM FEW035
     FM302200 30010KT P6SM SKC=



000
FTUS42 KFFC 300532
TAFFTY
TAF
KFTY 300532Z 3006/3106 19007KT P6SM SCT045 BKN150
     FM300900 20009KT P6SM SCT012 BKN040
     FM301100 22011KT 5SM -SHRA SCT008 BKN012
     FM301300 24010KT 6SM -SHRA OVC008
     FM301500 29007KT P6SM SCT008 BKN012
     FM301700 31010G15KT P6SM BKN040
     FM301900 32010G15KT P6SM FEW040
     FM302200 31009KT P6SM SKC=



000
FTUS42 KFFC 300532
TAFRYY
TAF
KRYY 300532Z 3006/3106 18007KT P6SM SCT015 BKN045
     FM300900 20009KT P6SM VCSH SCT012 OVC040
     FM301000 22010KT 6SM -SHRA SCT007 BKN012
     FM301200 24009KT P6SM VCSH OVC007
     FM301400 28008KT P6SM SCT007 BKN012
     FM301600 30008KT P6SM OVC035
     FM301800 31010KT P6SM SCT035
     FM310000 31005KT P6SM SKC
      AMD NOT SKED TIL 301200=



000
FTUS42 KFFC 300532
TAFRYY
TAF
KRYY 300532Z 3006/3106 18007KT P6SM SCT015 BKN045
     FM300900 20009KT P6SM VCSH SCT012 OVC040
     FM301000 22010KT 6SM -SHRA SCT007 BKN012
     FM301200 24009KT P6SM VCSH OVC007
     FM301400 28008KT P6SM SCT007 BKN012
     FM301600 30008KT P6SM OVC035
     FM301800 31010KT P6SM SCT035
     FM310000 31005KT P6SM SKC
      AMD NOT SKED TIL 301200=



000
FTUS42 KFFC 300532
TAFPDK
TAF
KPDK 300532Z 3006/3106 19007KT P6SM SCT040 BKN150
     FM301000 20009KT P6SM SCT012 BKN040
     FM301100 22010KT 5SM -SHRA BKN008 OVC015
     FM301300 24010KT P6SM VCSH OVC008
     FM301500 28008KT P6SM SCT008 BKN012
     FM301700 30010G15KT P6SM BKN035
     FM301900 31011G16KT P6SM FEW035
     FM302200 30010KT P6SM SKC=



000
FTUS42 KFFC 300532
TAFAHN
TAF
KAHN 300532Z 3006/3106 19007KT P6SM SCT045 BKN150
     FM300900 20006KT P6SM BKN040
     FM301100 21008KT 5SM -SHRA SCT012 OVC040
     FM301400 27007KT 6SM -SHRA BKN009 OVC012
     FM301600 29009KT P6SM SCT012 BKN040
     FM301800 30010KT P6SM SCT040
     FM302200 29008KT P6SM SKC
     FM310200 30004KT P6SM SKC=



000
FTUS42 KFFC 300532
TAFFTY
TAF
KFTY 300532Z 3006/3106 19007KT P6SM SCT045 BKN150
     FM300900 20009KT P6SM SCT012 BKN040
     FM301100 22011KT 5SM -SHRA SCT008 BKN012
     FM301300 24010KT 6SM -SHRA OVC008
     FM301500 29007KT P6SM SCT008 BKN012
     FM301700 31010G15KT P6SM BKN040
     FM301900 32010G15KT P6SM FEW040
     FM302200 31009KT P6SM SKC=



000
FTUS42 KFFC 300532
TAFCSG
TAF
KCSG 300532Z 3006/3106 18006KT P6SM SKC
     FM301000 21007KT P6SM SCT012 BKN040
     FM301400 23009KT 6SM -SHRA SCT008 OVC012
     FM301800 28009KT P6SM SCT008 BKN012 OVC035
     FM302000 29009KT P6SM SCT035
     FM310000 30005KT P6SM SKC
     FM310400 34003KT P6SM SKC=



000
FTUS42 KFFC 300532
TAFATL
TAF
KATL 300532Z 3006/3112 19007KT P6SM FEW040 SCT150
     FM300900 20009KT P6SM SCT012 BKN040
     FM301100 22010KT 5SM -SHRA SCT008 OVC012
     FM301300 24010KT 6SM -SHRA OVC008
     FM301500 28007KT P6SM BKN012
     FM301700 31010G15KT P6SM BKN035
     FM301900 32010G15KT P6SM SCT035
     FM302200 31009KT P6SM SKC=



000
FTUS42 KFFC 300532
TAFMCN
TAF
KMCN 300532Z 3006/3106 18007KT P6SM SKC
     FM301000 21008KT P6SM SCT012 BKN040
     FM301400 23010KT P6SM SCT012 OVC025
     FM301500 24011KT P6SM VCSH OVC025
      TEMPO 3015/3019 4SM SHRA SCT008 BKN012
     FM302000 29010KT P6SM SCT035
     FM310000 30005KT P6SM SKC
     FM310500 34003KT P6SM SKC=



000
FTUS42 KFFC 300339 AAB
TAFATL
TAF AMD
KATL 300339Z 3004/3106 19007KT P6SM SKC
     FM300600 17008KT P6SM SCT100
      TEMPO 3007/3011 19008KT P6SM BKN045
     FM301100 23010KT 5SM -RA BR OVC012
     FM301300 25010KT 5SM -RA BR BKN008 OVC012
     FM301600 29012KT P6SM BKN035
     FM302000 30014KT P6SM FEW035
     FM310000 31006KT P6SM SKC=



000
FTUS42 KFFC 300150 AAA
TAFATL
TAF AMD
KATL 300150Z 3002/3106 19007KT P6SM BKN045
      TEMPO 3003/3007 17007KT P6SM SKC
     FM301100 23010KT 5SM -RA BR OVC012
     FM301300 25010KT 5SM -RA BR BKN008 OVC012
     FM301600 29012KT P6SM BKN035
     FM302000 30014KT P6SM FEW035
     FM310000 31006KT P6SM SKC=



000
FTUS42 KFFC 300150 AAA
TAFATL
TAF AMD
KATL 300150Z 3002/3106 19007KT P6SM BKN045
      TEMPO 3003/3007 17007KT P6SM SKC
     FM301100 23010KT 5SM -RA BR OVC012
     FM301300 25010KT 5SM -RA BR BKN008 OVC012
     FM301600 29012KT P6SM BKN035
     FM302000 30014KT P6SM FEW035
     FM310000 31006KT P6SM SKC=



000
FTUS42 KFFC 292333
TAFATL
TAF
KATL 292333Z 3000/3106 19007KT P6SM BKN045
     FM300300 17007KT P6SM BKN040
     FM301100 23010KT 5SM -RA BR OVC012
     FM301300 25010KT 5SM -RA BR BKN008 OVC012
     FM301600 29012KT P6SM BKN035
     FM302000 30014KT P6SM FEW035
     FM310000 31006KT P6SM SKC=



000
FTUS42 KFFC 292333
TAFMCN
TAF
KMCN 292333Z 3000/3024 18005KT P6SM FEW050
     FM300600 VRB03KT P6SM BKN035
     FM301200 22006KT P6SM BKN015
     FM301500 23008KT 5SM -RA BR SCT008 OVC012
     FM301800 28011KT P6SM SCT040=



000
FTUS42 KFFC 292333
TAFCSG
TAF
KCSG 292333Z 3000/3024 19005KT P6SM FEW050
     FM300700 VRB03KT P6SM BKN035
     FM301200 22006KT P6SM BKN015
     FM301400 23008KT 5SM -RA BR SCT008 OVC012
     FM301700 29010KT P6SM SCT040
     FM302300 32005KT P6SM SKC=



000
FTUS42 KFFC 292333
TAFPDK
TAF
KPDK 292333Z 3000/3024 18005KT P6SM BKN050
     FM300400 VRB03KT P6SM BKN035
     FM301100 22006KT 6SM -RA BR OVC012
     FM301300 23008KT 5SM -RA BR BKN008 OVC012
     FM301600 29012KT P6SM BKN035
     FM302000 30014KT P6SM FEW035=



000
FTUS42 KFFC 292333
TAFAHN
TAF
KAHN 292333Z 3000/3024 VRB03KT P6SM FEW050
     FM300700 19005KT P6SM BKN035
     FM301200 23006KT 6SM -RA BR OVC012
     FM301400 25008KT 5SM -RA BR BKN008 OVC012
     FM301700 29012KT P6SM BKN040
     FM302100 30014KT P6SM FEW040=



000
FTUS42 KFFC 292333
TAFFTY
TAF
KFTY 292333Z 3000/3024 17005KT P6SM BKN060
     FM300500 VRB03KT P6SM BKN035
     FM301100 23006KT 6SM -RA BR OVC012
     FM301300 25008KT 5SM -RA BR BKN008 OVC012
     FM301600 29012KT P6SM BKN035
     FM302000 30014KT P6SM FEW035=



000
FTUS42 KFFC 292333
TAFRYY
TAF
KRYY 292333Z 3000/3024 17005KT P6SM BKN050
     FM300500 VRB03KT P6SM BKN035
     FM301100 22006KT 6SM -RA BR OVC012
     FM301300 23008KT 5SM -RA BR BKN008 OVC012
     FM301600 29012KT P6SM BKN035
     FM302000 30014KT P6SM FEW035=



000
FTUS42 KFFC 292333
TAFRYY
TAF
KRYY 292333Z 3000/3024 17005KT P6SM BKN050
     FM300500 VRB03KT P6SM BKN035
     FM301100 22006KT 6SM -RA BR OVC012
     FM301300 23008KT 5SM -RA BR BKN008 OVC012
     FM301600 29012KT P6SM BKN035
     FM302000 30014KT P6SM FEW035=



000
FTUS42 KFFC 292333
TAFFTY
TAF
KFTY 292333Z 3000/3024 17005KT P6SM BKN060
     FM300500 VRB03KT P6SM BKN035
     FM301100 23006KT 6SM -RA BR OVC012
     FM301300 25008KT 5SM -RA BR BKN008 OVC012
     FM301600 29012KT P6SM BKN035
     FM302000 30014KT P6SM FEW035=



000
FTUS42 KFFC 292333
TAFAHN
TAF
KAHN 292333Z 3000/3024 VRB03KT P6SM FEW050
     FM300700 19005KT P6SM BKN035
     FM301200 23006KT 6SM -RA BR OVC012
     FM301400 25008KT 5SM -RA BR BKN008 OVC012
     FM301700 29012KT P6SM BKN040
     FM302100 30014KT P6SM FEW040=



000
FTUS42 KFFC 292333
TAFPDK
TAF
KPDK 292333Z 3000/3024 18005KT P6SM BKN050
     FM300400 VRB03KT P6SM BKN035
     FM301100 22006KT 6SM -RA BR OVC012
     FM301300 23008KT 5SM -RA BR BKN008 OVC012
     FM301600 29012KT P6SM BKN035
     FM302000 30014KT P6SM FEW035=



000
FTUS42 KFFC 292333
TAFCSG
TAF
KCSG 292333Z 3000/3024 19005KT P6SM FEW050
     FM300700 VRB03KT P6SM BKN035
     FM301200 22006KT P6SM BKN015
     FM301400 23008KT 5SM -RA BR SCT008 OVC012
     FM301700 29010KT P6SM SCT040
     FM302300 32005KT P6SM SKC=



000
FTUS42 KFFC 292333
TAFMCN
TAF
KMCN 292333Z 3000/3024 18005KT P6SM FEW050
     FM300600 VRB03KT P6SM BKN035
     FM301200 22006KT P6SM BKN015
     FM301500 23008KT 5SM -RA BR SCT008 OVC012
     FM301800 28011KT P6SM SCT040=



000
FTUS42 KFFC 292333
TAFATL
TAF
KATL 292333Z 3000/3106 19007KT P6SM BKN045
     FM300300 17007KT P6SM BKN040
     FM301100 23010KT 5SM -RA BR OVC012
     FM301300 25010KT 5SM -RA BR BKN008 OVC012
     FM301600 29012KT P6SM BKN035
     FM302000 30014KT P6SM FEW035
     FM310000 31006KT P6SM SKC=



000
FTUS42 KFFC 292141 AAB
TAFATL
TAF AMD
KATL 292141Z 2922/3024 19008KT P6SM SCT045
     FM292300 19007KT P6SM BKN035
     FM300500 17007KT P6SM BKN035
     FM301100 23010KT 5SM -RA BR OVC012
     FM301300 25010KT 5SM -RA BR BKN008 OVC012
     FM301600 29012KT P6SM BKN035
     FM302000 30014KT P6SM FEW035=



000
FTUS42 KFFC 292141 AAB
TAFATL
TAF AMD
KATL 292141Z 2922/3024 19008KT P6SM SCT045
     FM292300 19007KT P6SM BKN035
     FM300500 17007KT P6SM BKN035
     FM301100 23010KT 5SM -RA BR OVC012
     FM301300 25010KT 5SM -RA BR BKN008 OVC012
     FM301600 29012KT P6SM BKN035
     FM302000 30014KT P6SM FEW035=



000
FTUS42 KFFC 291954 AAA
TAFATL
TAF AMD
KATL 291954Z 2920/3024 19008KT P6SM SKC
     FM300000 17007KT P6SM SCT050
     FM300500 17007KT P6SM BKN035
     FM301100 22010KT 6SM -RA BR OVC012
     FM301300 23010KT 5SM -RA BR BKN008 OVC012
     FM301900 30012KT P6SM BKN025=



000
FTUS42 KFFC 291954 AAA
TAFATL
TAF AMD
KATL 291954Z 2920/3024 19008KT P6SM SKC
     FM300000 17007KT P6SM SCT050
     FM300500 17007KT P6SM BKN035
     FM301100 22010KT 6SM -RA BR OVC012
     FM301300 23010KT 5SM -RA BR BKN008 OVC012
     FM301900 30012KT P6SM BKN025=



000
FTUS42 KFFC 291732
TAFCSG
TAF
KCSG 291732Z 2918/3018 13005KT P6SM FEW100
     FM292300 VRB03KT P6SM FEW050
     FM300700 VRB03KT P6SM BKN035
     FM301200 22006KT P6SM BKN015
     FM301400 23008KT 5SM -RA BR SCT008 OVC012=



000
FTUS42 KFFC 291732
TAFPDK
TAF
KPDK 291732Z 2918/3018 15005KT P6SM SKC
     FM300000 17005KT P6SM SCT050
     FM300500 VRB03KT P6SM BKN035
     FM301100 22006KT 6SM -RA BR OVC012
     FM301300 23008KT 5SM -RA BR BKN008 OVC012=



000
FTUS42 KFFC 291732
TAFFTY
TAF
KFTY 291732Z 2918/3018 15006KT P6SM SKC
     FM300000 17005KT P6SM SCT050
     FM300500 VRB03KT P6SM BKN035
     FM301100 22006KT 6SM -RA BR OVC012
     FM301300 23008KT 5SM -RA BR BKN008 OVC012=



000
FTUS42 KFFC 291732
TAFATL
TAF
KATL 291732Z 2918/3024 16008KT P6SM SKC
     FM300000 17007KT P6SM SCT050
     FM300500 17007KT P6SM BKN035
     FM301100 22010KT 6SM -RA BR OVC012
     FM301300 23010KT 5SM -RA BR BKN008 OVC012
     FM301900 30012KT P6SM BKN025=



000
FTUS42 KFFC 291732
TAFMCN
TAF
KMCN 291732Z 2918/3018 12006KT P6SM SKC
     FM300000 VRB03KT P6SM FEW050
     FM300700 VRB03KT P6SM BKN035
     FM301200 22006KT P6SM BKN015
     FM301400 23008KT 5SM -RA BR SCT008 OVC012=



000
FTUS42 KFFC 291732
TAFRYY
TAF
KRYY 291732Z 2918/3018 16008KT P6SM SKC
     FM300000 17005KT P6SM SCT050
     FM300500 VRB03KT P6SM BKN035
     FM301100 22006KT 6SM -RA BR OVC012
     FM301300 23008KT 5SM -RA BR BKN008 OVC012=



000
FTUS42 KFFC 291732
TAFAHN
TAF
KAHN 291732Z 2918/3018 VRB03KT P6SM SKC
     FM300000 VRB03KT P6SM FEW050
     FM300700 19005KT P6SM BKN035
     FM301200 22006KT 6SM -RA BR OVC012
     FM301400 23008KT 5SM -RA BR BKN008 OVC012=



000
FTUS42 KFFC 291732
TAFPDK
TAF
KPDK 291732Z 2918/3018 15005KT P6SM SKC
     FM300000 17005KT P6SM SCT050
     FM300500 VRB03KT P6SM BKN035
     FM301100 22006KT 6SM -RA BR OVC012
     FM301300 23008KT 5SM -RA BR BKN008 OVC012=



000
FTUS42 KFFC 291732
TAFAHN
TAF
KAHN 291732Z 2918/3018 VRB03KT P6SM SKC
     FM300000 VRB03KT P6SM FEW050
     FM300700 19005KT P6SM BKN035
     FM301200 22006KT 6SM -RA BR OVC012
     FM301400 23008KT 5SM -RA BR BKN008 OVC012=



000
FTUS42 KFFC 291732
TAFATL
TAF
KATL 291732Z 2918/3024 16008KT P6SM SKC
     FM300000 17007KT P6SM SCT050
     FM300500 17007KT P6SM BKN035
     FM301100 22010KT 6SM -RA BR OVC012
     FM301300 23010KT 5SM -RA BR BKN008 OVC012
     FM301900 30012KT P6SM BKN025=



000
FTUS42 KFFC 291732
TAFMCN
TAF
KMCN 291732Z 2918/3018 12006KT P6SM SKC
     FM300000 VRB03KT P6SM FEW050
     FM300700 VRB03KT P6SM BKN035
     FM301200 22006KT P6SM BKN015
     FM301400 23008KT 5SM -RA BR SCT008 OVC012=



000
FTUS42 KFFC 291732
TAFRYY
TAF
KRYY 291732Z 2918/3018 16008KT P6SM SKC
     FM300000 17005KT P6SM SCT050
     FM300500 VRB03KT P6SM BKN035
     FM301100 22006KT 6SM -RA BR OVC012
     FM301300 23008KT 5SM -RA BR BKN008 OVC012=



000
FTUS42 KFFC 291732
TAFCSG
TAF
KCSG 291732Z 2918/3018 13005KT P6SM FEW100
     FM292300 VRB03KT P6SM FEW050
     FM300700 VRB03KT P6SM BKN035
     FM301200 22006KT P6SM BKN015
     FM301400 23008KT 5SM -RA BR SCT008 OVC012=



000
FTUS42 KFFC 291732
TAFFTY
TAF
KFTY 291732Z 2918/3018 15006KT P6SM SKC
     FM300000 17005KT P6SM SCT050
     FM300500 VRB03KT P6SM BKN035
     FM301100 22006KT 6SM -RA BR OVC012
     FM301300 23008KT 5SM -RA BR BKN008 OVC012=



000
FTUS42 KFFC 291555 AAB
TAFATL
TAF AMD
KATL 291555Z 2916/3018 17010KT P6SM SKC
     FM292000 17007KT P6SM SCT050
     FM300300 17007KT P6SM BKN035
     FM301100 22010KT P6SM OVC012
     FM301300 23009KT P6SM VCSH SCT008 BKN012=



000
FTUS42 KFFC 291359 AAA
TAFATL
TAF AMD
KATL 291359Z 2914/3018 15010KT P6SM SKC
     FM292000 19007KT P6SM SCT050
     FM300300 17007KT P6SM BKN035
     FM301100 22010KT P6SM OVC012
     FM301300 23009KT P6SM VCSH SCT008 BKN012=



000
FTUS42 KFFC 291359 AAA
TAFATL
TAF AMD
KATL 291359Z 2914/3018 15010KT P6SM SKC
     FM292000 19007KT P6SM SCT050
     FM300300 17007KT P6SM BKN035
     FM301100 22010KT P6SM OVC012
     FM301300 23009KT P6SM VCSH SCT008 BKN012=



000
FTUS42 KFFC 291131
TAFMCN
TAF
KMCN 291131Z 2912/3012 00000KT P6SM SKC
     FM291300 06006KT P6SM SKC
     FM291700 10006KT P6SM SKC
     FM292000 15005KT P6SM SKC
     FM292200 17004KT P6SM FEW045
     FM300800 20006KT P6SM BKN035=



000
FTUS42 KFFC 291131
TAFPDK
TAF
KPDK 291131Z 2912/3012 00000KT P6SM SKC
     FM291400 11006KT P6SM SKC
     FM291700 15007KT P6SM SKC
     FM292100 18007KT P6SM SCT050
     FM300300 17007KT P6SM BKN035
     FM300800 20008KT P6SM OVC020=



000
FTUS42 KFFC 291131
TAFCSG
TAF
KCSG 291131Z 2912/3012 00000KT P6SM BKN100
     FM291300 07006KT P6SM FEW100
     FM291500 13007KT P6SM FEW100
     FM292100 17005KT P6SM BKN050
     FM300300 16005KT P6SM SCT035 BKN050
     FM300500 17005KT P6SM BKN035
     FM300800 20006KT P6SM OVC025=



000
FTUS42 KFFC 291131
TAFATL
TAF
KATL 291131Z 2912/3018 34006KT P6SM SKC
     FM291400 10006KT P6SM SKC
     FM291700 15007KT P6SM SKC
     FM292000 19007KT P6SM SCT050
     FM300300 17007KT P6SM BKN035
     FM301100 22010KT P6SM OVC012
     FM301300 23009KT P6SM VCSH SCT008 BKN012=



000
FTUS42 KFFC 291131
TAFRYY
TAF
KRYY 291131Z 2912/3012 00000KT P6SM SKC
     FM291400 12006KT P6SM SKC
     FM291700 16008KT P6SM SKC
     FM292100 18008KT P6SM SCT050
     FM300200 17008KT P6SM BKN035
     FM300800 20007KT P6SM OVC025
     FM301100 21009KT P6SM OVC012=



000
FTUS42 KFFC 291131
TAFRYY
TAF
KRYY 291131Z 2912/3012 00000KT P6SM SKC
     FM291400 12006KT P6SM SKC
     FM291700 16008KT P6SM SKC
     FM292100 18008KT P6SM SCT050
     FM300200 17008KT P6SM BKN035
     FM300800 20007KT P6SM OVC025
     FM301100 21009KT P6SM OVC012=



000
FTUS42 KFFC 291131
TAFFTY
TAF
KFTY 291131Z 2912/3012 00000KT P6SM SKC
     FM291400 11007KT P6SM SKC
     FM291700 15008KT P6SM SKC
     FM292000 18008KT P6SM SCT050
     FM300200 17008KT P6SM BKN035
     FM300800 20007KT P6SM OVC025
     FM301100 22010KT P6SM OVC012=



000
FTUS42 KFFC 291131
TAFAHN
TAF
KAHN 291131Z 2912/3012 04003KT P6SM SKC
     FM291400 10005KT P6SM SKC
     FM291900 15006KT P6SM SKC
     FM300000 17004KT P6SM FEW050
     FM300500 19005KT P6SM BKN035
     FM300800 21006KT P6SM OVC012=



000
FTUS42 KFFC 291131
TAFMCN
TAF
KMCN 291131Z 2912/3012 00000KT P6SM SKC
     FM291300 06006KT P6SM SKC
     FM291700 10006KT P6SM SKC
     FM292000 15005KT P6SM SKC
     FM292200 17004KT P6SM FEW045
     FM300800 20006KT P6SM BKN035=



000
FTUS42 KFFC 291131
TAFAHN
TAF
KAHN 291131Z 2912/3012 04003KT P6SM SKC
     FM291400 10005KT P6SM SKC
     FM291900 15006KT P6SM SKC
     FM300000 17004KT P6SM FEW050
     FM300500 19005KT P6SM BKN035
     FM300800 21006KT P6SM OVC012=



000
FTUS42 KFFC 291131
TAFPDK
TAF
KPDK 291131Z 2912/3012 00000KT P6SM SKC
     FM291400 11006KT P6SM SKC
     FM291700 15007KT P6SM SKC
     FM292100 18007KT P6SM SCT050
     FM300300 17007KT P6SM BKN035
     FM300800 20008KT P6SM OVC020=



000
FTUS42 KFFC 291131
TAFATL
TAF
KATL 291131Z 2912/3018 34006KT P6SM SKC
     FM291400 10006KT P6SM SKC
     FM291700 15007KT P6SM SKC
     FM292000 19007KT P6SM SCT050
     FM300300 17007KT P6SM BKN035
     FM301100 22010KT P6SM OVC012
     FM301300 23009KT P6SM VCSH SCT008 BKN012=



000
FTUS42 KFFC 291131
TAFFTY
TAF
KFTY 291131Z 2912/3012 00000KT P6SM SKC
     FM291400 11007KT P6SM SKC
     FM291700 15008KT P6SM SKC
     FM292000 18008KT P6SM SCT050
     FM300200 17008KT P6SM BKN035
     FM300800 20007KT P6SM OVC025
     FM301100 22010KT P6SM OVC012=



000
FTUS42 KFFC 291131
TAFCSG
TAF
KCSG 291131Z 2912/3012 00000KT P6SM BKN100
     FM291300 07006KT P6SM FEW100
     FM291500 13007KT P6SM FEW100
     FM292100 17005KT P6SM BKN050
     FM300300 16005KT P6SM SCT035 BKN050
     FM300500 17005KT P6SM BKN035
     FM300800 20006KT P6SM OVC025=



000
FTUS42 KFFC 290935 AAB
TAFATL
TAF AMD
KATL 290935Z 2910/3012 34006KT P6SM SKC
     FM291400 11006KT P6SM SKC
     FM291700 15007KT P6SM SKC
     FM292000 19007KT P6SM SCT050
     FM300300 17007KT P6SM BKN035
     FM301100 22010KT P6SM OVC012=



000
FTUS42 KFFC 290730 AAA
TAFATL
TAF AMD
KATL 290730Z 2908/3012 34006KT P6SM SKC
     FM291400 11006KT P6SM SKC
     FM291700 15007KT P6SM SKC
     FM292000 19007KT P6SM SCT050
     FM300300 17007KT P6SM BKN035
     FM301100 22010KT P6SM OVC012=



000
FTUS42 KFFC 290545 CCA
TAFATL
TAF COR
KATL 290545Z 2906/3012 34003KT P6SM SKC
     FM291400 11006KT P6SM SKC
     FM291700 15007KT P6SM SKC
     FM292000 19007KT P6SM SCT050
     FM300300 17007KT P6SM BKN035
     FM301100 22010KT P6SM OVC012=



000
FTUS42 KFFC 290545 CCA
TAFATL
TAF COR
KATL 290545Z 2906/3012 34003KT P6SM SKC
     FM291400 11006KT P6SM SKC
     FM291700 15007KT P6SM SKC
     FM292000 19007KT P6SM SCT050
     FM300300 17007KT P6SM BKN035
     FM301100 22010KT P6SM OVC012=



000
FTUS42 KFFC 290534
TAFPDK
TAF
KPDK 290534Z 2906/3006 00000KT P6SM SKC
     FM291400 11006KT P6SM SKC
     FM291700 15007KT P6SM SKC
     FM292100 18007KT P6SM SCT050
     FM300300 17007KT P6SM BKN035=



000
FTUS42 KFFC 290534
TAFRYY
TAF
KRYY 290534Z 2906/3006 00000KT P6SM SKC
     FM291400 12006KT P6SM SKC
     FM291700 16008KT P6SM SKC
     FM292100 18008KT P6SM SCT050
     FM300200 17008KT P6SM BKN035
      AMD NOT SKED TIL 291200=



000
FTUS42 KFFC 290534
TAFFTY
TAF
KFTY 290534Z 2906/3006 00000KT P6SM SKC
     FM291400 11007KT P6SM SKC
     FM291700 15008KT P6SM SKC
     FM292000 18008KT P6SM SCT050
     FM300200 17008KT P6SM BKN035=



000
FTUS42 KFFC 290534
TAFATL
TAF
KATL 290534Z 2906/3012 34003KT P6SM SKC
     FM291400 11006KT P6SM SKC
     FM291700 15007KT P6SM SKC
     FM292000 18007KT P6SM SCT050
     FM300300 17007KT P6SM BKN035
     FM301100 22010KT P6SM OVC012=



000
FTUS42 KFFC 290534
TAFAHN
TAF
KAHN 290534Z 2906/3006 36003KT P6SM SKC
     FM291000 04003KT P6SM SKC
     FM291400 10005KT P6SM SKC
     FM291900 15006KT P6SM SKC
     FM300000 17004KT P6SM FEW050
     FM300500 19005KT P6SM BKN035=



000
FTUS42 KFFC 290534
TAFCSG
TAF
KCSG 290534Z 2906/3006 00000KT P6SM BKN100
     FM291300 07006KT P6SM FEW100
     FM291500 11007KT P6SM FEW100
     FM291900 15006KT P6SM FEW100
     FM292100 17005KT P6SM BKN050
     FM300300 16005KT P6SM SCT035 BKN050
     FM300500 17005KT P6SM BKN035=



000
FTUS42 KFFC 290534
TAFMCN
TAF
KMCN 290534Z 2906/3006 00000KT P6SM SKC
     FM291300 06006KT P6SM SKC
     FM291700 10006KT P6SM SKC
     FM292000 15005KT P6SM SKC
     FM292200 17004KT P6SM FEW045=



000
FTUS42 KFFC 290534
TAFPDK
TAF
KPDK 290534Z 2906/3006 00000KT P6SM SKC
     FM291400 11006KT P6SM SKC
     FM291700 15007KT P6SM SKC
     FM292100 18007KT P6SM SCT050
     FM300300 17007KT P6SM BKN035=



000
FTUS42 KFFC 290534
TAFRYY
TAF
KRYY 290534Z 2906/3006 00000KT P6SM SKC
     FM291400 12006KT P6SM SKC
     FM291700 16008KT P6SM SKC
     FM292100 18008KT P6SM SCT050
     FM300200 17008KT P6SM BKN035
      AMD NOT SKED TIL 291200=



000
FTUS42 KFFC 290534
TAFAHN
TAF
KAHN 290534Z 2906/3006 36003KT P6SM SKC
     FM291000 04003KT P6SM SKC
     FM291400 10005KT P6SM SKC
     FM291900 15006KT P6SM SKC
     FM300000 17004KT P6SM FEW050
     FM300500 19005KT P6SM BKN035=



000
FTUS42 KFFC 290534
TAFCSG
TAF
KCSG 290534Z 2906/3006 00000KT P6SM BKN100
     FM291300 07006KT P6SM FEW100
     FM291500 11007KT P6SM FEW100
     FM291900 15006KT P6SM FEW100
     FM292100 17005KT P6SM BKN050
     FM300300 16005KT P6SM SCT035 BKN050
     FM300500 17005KT P6SM BKN035=



000
FTUS42 KFFC 290534
TAFFTY
TAF
KFTY 290534Z 2906/3006 00000KT P6SM SKC
     FM291400 11007KT P6SM SKC
     FM291700 15008KT P6SM SKC
     FM292000 18008KT P6SM SCT050
     FM300200 17008KT P6SM BKN035=



000
FTUS42 KFFC 290534
TAFMCN
TAF
KMCN 290534Z 2906/3006 00000KT P6SM SKC
     FM291300 06006KT P6SM SKC
     FM291700 10006KT P6SM SKC
     FM292000 15005KT P6SM SKC
     FM292200 17004KT P6SM FEW045=



000
FTUS42 KFFC 290534
TAFATL
TAF
KATL 290534Z 2906/3012 34003KT P6SM SKC
     FM291400 11006KT P6SM SKC
     FM291700 15007KT P6SM SKC
     FM292000 18007KT P6SM SCT050
     FM300300 17007KT P6SM BKN035
     FM301100 22010KT P6SM OVC012=



000
FTUS42 KFFC 290331 AAB
TAFATL
TAF AMD
KATL 290331Z 2904/3006 31006KT P6SM SKC
     FM290600 35004KT P6SM SKC
     FM291200 08005KT P6SM SKC
     FM291500 12007KT P6SM FEW250
     FM292000 16008KT P6SM SCT050
     FM300400 17006KT P6SM BKN050=



000
FTUS42 KFFC 290305 AAA
TAFMCN
TAF AMD
KMCN 290305Z 2903/2924 31003KT P6SM SCT110
     FM290600 VRB03KT P6SM FEW120
     FM291200 07004KT P6SM SKC
     FM291500 10008KT P6SM SKC
     FM291900 13007KT P6SM SCT050=



000
FTUS42 KFFC 290305 AAA
TAFMCN
TAF AMD
KMCN 290305Z 2903/2924 31003KT P6SM SCT110
     FM290600 VRB03KT P6SM FEW120
     FM291200 07004KT P6SM SKC
     FM291500 10008KT P6SM SKC
     FM291900 13007KT P6SM SCT050=



000
FTUS42 KFFC 290302 AAA
TAFCSG
TAF AMD
KCSG 290302Z 2903/2924 35005KT P6SM BKN090
     FM290900 06003KT P6SM SCT100
     FM291200 09004KT P6SM FEW120
     FM291500 13008KT P6SM SKC
     FM292000 16007KT P6SM SCT050=



000
FTUS42 KFFC 290130 AAA
TAFATL
TAF AMD
KATL 290130Z 2902/3006 30007KT P6SM FEW120
     FM290600 35004KT P6SM SKC
     FM291200 08005KT P6SM SKC
     FM291500 12007KT P6SM FEW250
     FM292000 16008KT P6SM SCT050
     FM300400 17006KT P6SM BKN050=



000
FTUS42 KFFC 290130 AAA
TAFATL
TAF AMD
KATL 290130Z 2902/3006 30007KT P6SM FEW120
     FM290600 35004KT P6SM SKC
     FM291200 08005KT P6SM SKC
     FM291500 12007KT P6SM FEW250
     FM292000 16008KT P6SM SCT050
     FM300400 17006KT P6SM BKN050=



000
FTUS42 KFFC 290127 AAA
TAFFTY
TAF AMD
KFTY 290127Z 2901/2924 30007KT P6SM FEW120
     FM290400 00000KT P6SM SKC
     FM291200 08004KT P6SM SKC
     FM291500 12006KT P6SM FEW250
     FM292000 16007KT P6SM SCT050=



000
FTUS42 KFFC 290127 AAA
TAFFTY
TAF AMD
KFTY 290127Z 2901/2924 30007KT P6SM FEW120
     FM290400 00000KT P6SM SKC
     FM291200 08004KT P6SM SKC
     FM291500 12006KT P6SM FEW250
     FM292000 16007KT P6SM SCT050=



000
FTUS42 KFFC 290127 AAA
TAFRYY
TAF AMD
KRYY 290127Z 2901/2924 35006KT P6SM SKC
     FM291200 08004KT P6SM SKC
     FM291500 12006KT P6SM FEW250
     FM292000 16007KT P6SM SCT050=



000
FTUS42 KFFC 290127 AAA
TAFRYY
TAF AMD
KRYY 290127Z 2901/2924 35006KT P6SM SKC
     FM291200 08004KT P6SM SKC
     FM291500 12006KT P6SM FEW250
     FM292000 16007KT P6SM SCT050=



000
FTUS42 KFFC 282324
TAFAHN
TAF
KAHN 282324Z 2900/2924 31010KT P6SM SKC
     FM290300 VRB03KT P6SM SKC
     FM290900 09003KT P6SM SKC
     FM291600 13006KT P6SM SKC
     FM292100 16006KT P6SM SCT050=



000
FTUS42 KFFC 282324
TAFFTY
TAF
KFTY 282324Z 2900/2924 32010KT P6SM SCT150
     FM290300 35003KT P6SM SKC
     FM291200 08004KT P6SM SKC
     FM291500 12006KT P6SM FEW250
     FM292000 16007KT P6SM SCT050=



000
FTUS42 KFFC 282324
TAFATL
TAF
KATL 282324Z 2900/3006 32012KT P6SM SCT130
     FM290400 35006KT P6SM SKC
     FM291200 08005KT P6SM SKC
     FM291500 12007KT P6SM FEW250
     FM292000 16008KT P6SM SCT050
     FM300400 17006KT P6SM BKN050=



000
FTUS42 KFFC 282324
TAFRYY
TAF
KRYY 282324Z 2900/2924 32010KT P6SM FEW150
     FM290300 35003KT P6SM SKC
     FM291200 08004KT P6SM SKC
     FM291500 12006KT P6SM FEW250
     FM292000 16007KT P6SM SCT050=



000
FTUS42 KFFC 282324
TAFPDK
TAF
KPDK 282324Z 2900/2924 32010KT P6SM FEW150
     FM290300 35003KT P6SM SKC
     FM291200 08004KT P6SM SKC
     FM291500 12006KT P6SM FEW250
     FM292000 16007KT P6SM SCT050=



000
FTUS42 KFFC 282324
TAFCSG
TAF
KCSG 282324Z 2900/2924 35010KT P6SM BKN110
     FM290300 VRB03KT P6SM BKN100
     FM291200 09004KT P6SM SCT120
     FM291500 13007KT P6SM SKC
     FM291900 16008KT P6SM SCT050=



000
FTUS42 KFFC 282324
TAFMCN
TAF
KMCN 282324Z 2900/2924 31008KT P6SM FEW150
     FM290300 34003KT P6SM FEW150
     FM291100 05004KT P6SM SCT250
     FM291500 10008KT P6SM SKC
     FM292000 15007KT P6SM SCT050=



000
FTUS42 KFFC 282202 AAA
TAFAHN
TAF AMD
KAHN 282202Z 2822/2918 29010G16KT P6SM SKC
     FM290000 30006KT P6SM SKC
     FM290300 VRB03KT P6SM SKC
     FM290900 09005KT P6SM SKC
     FM291600 13007KT P6SM SKC=



000
FTUS42 KFFC 282202 AAA
TAFAHN
TAF AMD
KAHN 282202Z 2822/2918 29010G16KT P6SM SKC
     FM290000 30006KT P6SM SKC
     FM290300 VRB03KT P6SM SKC
     FM290900 09005KT P6SM SKC
     FM291600 13007KT P6SM SKC=



000
FTUS42 KFFC 282159 AAA
TAFRYY
TAF AMD
KRYY 282159Z 2822/2918 32010G18KT P6SM SCT150
     FM290000 32008KT P6SM SCT150
     FM290500 00000KT P6SM FEW150
     FM291200 09005KT P6SM SKC
     FM291600 12007KT P6SM SKC=



000
FTUS42 KFFC 282158 AAA
TAFFTY
TAF AMD
KFTY 282158Z 2822/2918 30010G18KT P6SM BKN150
     FM290000 32008KT P6SM BKN120
     FM290500 00000KT P6SM FEW150
     FM291200 09005KT P6SM SKC
     FM291600 12007KT P6SM SKC=



000
FTUS42 KFFC 282158 AAA
TAFFTY
TAF AMD
KFTY 282158Z 2822/2918 30010G18KT P6SM BKN150
     FM290000 32008KT P6SM BKN120
     FM290500 00000KT P6SM FEW150
     FM291200 09005KT P6SM SKC
     FM291600 12007KT P6SM SKC=



000
FTUS42 KFFC 282158 AAB
TAFPDK
TAF AMD
KPDK 282158Z 2822/2918 32012G18KT P6SM SCT150
     FM290000 32008KT P6SM SCT150
     FM290500 00000KT P6SM SKC
     FM291200 09005KT P6SM SKC
     FM291600 12007KT P6SM SKC=



000
FTUS42 KFFC 282154 AAB
TAFATL
TAF AMD
KATL 282154Z 2822/2924 32012G20KT P6SM BKN150
     FM290000 32010KT P6SM BKN120
     FM290600 34006KT P6SM FEW150
     FM291200 09005KT P6SM SKC
     FM291600 12007KT P6SM SKC
     FM292000 16008KT P6SM SCT040 SCT250=



000
FTUS42 KFFC 282152 AAA
TAFMCN
TAF AMD
KMCN 282152Z 2822/2918 30010G18KT P6SM SKC
     FM290000 35007KT P6SM BKN120
     FM290600 VRB03KT P6SM SCT150
     FM291000 10005KT P6SM SCT250
     FM291600 12007KT P6SM SKC=



000
FTUS42 KFFC 282150 AAB
TAFCSG
TAF AMD
KCSG 282150Z 2822/2918 32012G18KT P6SM BKN110
     FM290000 31008KT P6SM BKN090
     FM290600 VRB03KT P6SM SCT110
     FM291100 05005KT P6SM SCT250
     FM291600 12007KT P6SM SKC=



000
FTUS42 KFFC 281947 AAA
TAFATL
TAF AMD
KATL 281947Z 2820/2924 32012G20KT P6SM SKC
     FM282300 32010KT P6SM SCT060
     FM290600 34006KT P6SM SKC
     FM291200 10005KT P6SM SKC
     FM291600 12007KT P6SM SKC
     FM292000 16008KT P6SM SCT040 SCT250=



000
FTUS42 KFFC 281947 AAA
TAFATL
TAF AMD
KATL 281947Z 2820/2924 32012G20KT P6SM SKC
     FM282300 32010KT P6SM SCT060
     FM290600 34006KT P6SM SKC
     FM291200 10005KT P6SM SKC
     FM291600 12007KT P6SM SKC
     FM292000 16008KT P6SM SCT040 SCT250=



000
FTUS42 KFFC 281940 AAA
TAFCSG
TAF AMD
KCSG 281940Z 2820/2918 32012G18KT P6SM SKC
     FM282200 31008KT P6SM SCT060
     FM290300 VRB03KT P6SM SKC
     FM291100 05005KT P6SM SKC
     FM291600 12007KT P6SM SKC=



000
FTUS42 KFFC 281939 AAA
TAFPDK
TAF AMD
KPDK 281939Z 2820/2918 30012G20KT P6SM SKC
     FM282300 32008KT P6SM SCT060
     FM290300 34004KT P6SM SKC
     FM291200 10005KT P6SM SKC
     FM291600 12007KT P6SM SKC=



000
FTUS42 KFFC 281737
TAFRYY
TAF
KRYY 281737Z 2818/2918 32010G18KT P6SM SKC
     FM282200 32008KT P6SM SCT060
     FM290300 34004KT P6SM SKC
     FM291200 10005KT P6SM SKC
     FM291600 12007KT P6SM SKC=



000
FTUS42 KFFC 281737
TAFMCN
TAF
KMCN 281737Z 2818/2918 30010G18KT P6SM SKC
     FM282200 35007KT P6SM SKC
     FM290300 VRB03KT P6SM SKC
     FM291000 10005KT P6SM SKC
     FM291600 12007KT P6SM SKC=



000
FTUS42 KFFC 281737
TAFATL
TAF
KATL 281737Z 2818/2924 32012G18KT P6SM SKC
     FM282200 32010KT P6SM SCT060
     FM290300 34006KT P6SM SKC
     FM291200 10005KT P6SM SKC
     FM291600 12007KT P6SM SKC
     FM292000 16008KT P6SM SCT040 SCT250=



000
FTUS42 KFFC 281737
TAFAHN
TAF
KAHN 281737Z 2818/2918 30010G16KT P6SM SKC
     FM282100 34007KT P6SM SKC
     FM290300 VRB03KT P6SM SKC
     FM291000 10005KT P6SM SKC
     FM291600 12007KT P6SM SKC=



000
FTUS42 KFFC 281737
TAFPDK
TAF
KPDK 281737Z 2818/2918 32012G18KT P6SM SKC
     FM282200 32008KT P6SM SCT060
     FM290300 34004KT P6SM SKC
     FM291200 10005KT P6SM SKC
     FM291600 12007KT P6SM SKC=



000
FTUS42 KFFC 281737
TAFFTY
TAF
KFTY 281737Z 2818/2918 32010G18KT P6SM SKC
     FM282200 32008KT P6SM SCT060
     FM290300 34004KT P6SM SKC
     FM291200 10005KT P6SM SKC
     FM291600 12007KT P6SM SKC=



000
FTUS42 KFFC 281737
TAFATL
TAF
KATL 281737Z 2818/2924 32012G18KT P6SM SKC
     FM282200 32010KT P6SM SCT060
     FM290300 34006KT P6SM SKC
     FM291200 10005KT P6SM SKC
     FM291600 12007KT P6SM SKC
     FM292000 16008KT P6SM SCT040 SCT250=



000
FTUS42 KFFC 281737
TAFRYY
TAF
KRYY 281737Z 2818/2918 32010G18KT P6SM SKC
     FM282200 32008KT P6SM SCT060
     FM290300 34004KT P6SM SKC
     FM291200 10005KT P6SM SKC
     FM291600 12007KT P6SM SKC=



000
FTUS42 KFFC 281737
TAFPDK
TAF
KPDK 281737Z 2818/2918 32012G18KT P6SM SKC
     FM282200 32008KT P6SM SCT060
     FM290300 34004KT P6SM SKC
     FM291200 10005KT P6SM SKC
     FM291600 12007KT P6SM SKC=



000
FTUS42 KFFC 281737
TAFCSG
TAF
KCSG 281737Z 2818/2918 32012KT P6SM SKC
     FM282100 31008KT P6SM SCT060
     FM290300 VRB03KT P6SM SKC
     FM291100 05005KT P6SM SKC
     FM291600 12007KT P6SM SKC=



000
FTUS42 KFFC 281737
TAFAHN
TAF
KAHN 281737Z 2818/2918 30010G16KT P6SM SKC
     FM282100 34007KT P6SM SKC
     FM290300 VRB03KT P6SM SKC
     FM291000 10005KT P6SM SKC
     FM291600 12007KT P6SM SKC=



000
FTUS42 KFFC 281737
TAFCSG
TAF
KCSG 281737Z 2818/2918 32012KT P6SM SKC
     FM282100 31008KT P6SM SCT060
     FM290300 VRB03KT P6SM SKC
     FM291100 05005KT P6SM SKC
     FM291600 12007KT P6SM SKC=



000
FTUS42 KFFC 281737
TAFFTY
TAF
KFTY 281737Z 2818/2918 32010G18KT P6SM SKC
     FM282200 32008KT P6SM SCT060
     FM290300 34004KT P6SM SKC
     FM291200 10005KT P6SM SKC
     FM291600 12007KT P6SM SKC=



000
FTUS42 KFFC 281737
TAFMCN
TAF
KMCN 281737Z 2818/2918 30010G18KT P6SM SKC
     FM282200 35007KT P6SM SKC
     FM290300 VRB03KT P6SM SKC
     FM291000 10005KT P6SM SKC
     FM291600 12007KT P6SM SKC=



000
FTUS42 KFFC 281555 AAB
TAFATL
TAF AMD
KATL 281555Z 2816/2918 32014KT P6SM SKC
     FM282000 32010KT P6SM SKC
     FM290300 34005KT P6SM SKC
     FM291200 10003KT P6SM SKC
     FM291500 12007KT P6SM SKC=



000
FTUS42 KFFC 281404 AAA
TAFCSG
TAF AMD
KCSG 281404Z 2814/2912 32011KT P6SM BKN030
     FM281700 32012G18KT P6SM SCT040
     FM290100 VRB03KT P6SM SKC
     FM291100 05005KT P6SM SKC=



000
FTUS42 KFFC 281402 AAA
TAFMCN
TAF AMD
KMCN 281402Z 2814/2912 30010G18KT P6SM SKC
     FM282100 35007KT P6SM SKC
     FM291000 03003KT P6SM SKC=



000
FTUS42 KFFC 281402 AAA
TAFMCN
TAF AMD
KMCN 281402Z 2814/2912 30010G18KT P6SM SKC
     FM282100 35007KT P6SM SKC
     FM291000 03003KT P6SM SKC=



000
FTUS42 KFFC 281401 AAA
TAFAHN
TAF AMD
KAHN 281401Z 2814/2912 30010G16KT P6SM SKC
     FM282100 34007KT P6SM SKC
     FM290600 01003KT P6SM SKC=



000
FTUS42 KFFC 281401 AAA
TAFAHN
TAF AMD
KAHN 281401Z 2814/2912 30010G16KT P6SM SKC
     FM282100 34007KT P6SM SKC
     FM290600 01003KT P6SM SKC=



000
FTUS42 KFFC 281400 AAA
TAFPDK
TAF AMD
KPDK 281400Z 2814/2912 32012G18KT P6SM SCT040
     FM282000 34010KT P6SM SKC
     FM290400 34005KT P6SM SKC=



000
FTUS42 KFFC 281359 AAA
TAFFTY
TAF AMD
KFTY 281359Z 2814/2912 32010G18KT P6SM SCT040
     FM282000 32010KT P6SM SKC
     FM290300 35005KT P6SM SKC=



000
FTUS42 KFFC 281356 AAA
TAFATL
TAF AMD
KATL 281356Z 2814/2918 32014KT P6SM SCT040
     FM281700 32010KT P6SM SKC
     FM290300 34005KT P6SM SKC
     FM291200 10003KT P6SM SKC
     FM291500 12007KT P6SM SKC=



000
FTUS42 KFFC 281356 AAA
TAFATL
TAF AMD
KATL 281356Z 2814/2918 32014KT P6SM SCT040
     FM281700 32010KT P6SM SKC
     FM290300 34005KT P6SM SKC
     FM291200 10003KT P6SM SKC
     FM291500 12007KT P6SM SKC=



000
FTUS42 KFFC 281126
TAFFTY
TAF
KFTY 281126Z 2812/2912 32009KT P6SM SCT040
     FM290300 35005KT P6SM SKC=



000
FTUS42 KFFC 281126
TAFCSG
TAF
KCSG 281126Z 2812/2912 32006KT P6SM SKC
     FM290800 01003KT P6SM SKC
     FM291100 05005KT P6SM SKC=



000
FTUS42 KFFC 281126
TAFAHN
TAF
KAHN 281126Z 2812/2912 30007KT P6SM SKC
     FM290300 34007KT P6SM SKC
     FM290600 01003KT P6SM SKC=



000
FTUS42 KFFC 281126
TAFMCN
TAF
KMCN 281126Z 2812/2912 31006KT P6SM SKC
     FM290300 35005KT P6SM SKC
     FM291000 03003KT P6SM SKC=



000
FTUS42 KFFC 281126
TAFATL
TAF
KATL 281126Z 2812/2918 32010KT P6SM SCT040
     FM281600 32008KT P6SM SKC
     FM290300 34005KT P6SM SKC
     FM291200 10003KT P6SM SKC
     FM291500 12007KT P6SM SKC=



000
FTUS42 KFFC 281126
TAFPDK
TAF
KPDK 281126Z 2812/2912 32009KT P6SM SCT040
     FM290400 34005KT P6SM SKC=



000
FTUS42 KFFC 281126
TAFRYY
TAF
KRYY 281126Z 2812/2912 32008KT P6SM SCT040
     FM281500 32009KT P6SM SKC
     FM290300 35005KT P6SM SKC=



000
FTUS42 KFFC 280931 AAB
TAFATL
TAF AMD
KATL 280931Z 2810/2912 31007KT P6SM FEW040
     FM281600 32010KT P6SM SKC
     FM290300 34005KT P6SM SKC=



    US Dept of Commerce
    National Oceanic and Atmospheric Administration
    National Weather Service
    1325 East West Highway
    Silver Spring, MD 20910
    Page Author: NWS Internet Services Team
Disclaimer
Information Quality
Credits
Glossary
Privacy Policy
Freedom of Information Act (FOIA)
About Us
Career Opportunities